sensor_id;sensor_type;location;lat;lon;timestamp;P1;durP1;ratioP1;P2;durP2;ratioP2
59571;SDS011;59406;45.602;11.904;2023-03-16T00:02:12;3.95;;;1.02;;
59571;SDS011;59406;45.602;11.904;2023-03-16T00:04:39;3.77;;;0.80;;
59571;SDS011;59406;45.602;11.904;2023-03-16T00:07:08;2.75;;;0.70;;
59571;SDS011;59406;45.602;11.904;2023-03-16T00:09:35;3.25;;;0.90;;
59571;SDS011;59406;45.602;11.904;2023-03-16T00:12:06;5.15;;;1.30;;
59571;SDS011;59406;45.602;11.904;2023-03-16T00:14:44;4.03;;;0.95;;
59571;SDS011;59406;45.602;11.904;2023-03-16T00:17:13;4.20;;;1.03;;
59571;SDS011;59406;45.602;11.904;2023-03-16T00:19:47;4.97;;;1.13;;
59571;SDS011;59406;45.602;11.904;2023-03-16T00:22:20;4.47;;;0.93;;
59571;SDS011;59406;45.602;11.904;2023-03-16T00:24:47;3.70;;;1.00;;
59571;SDS011;59406;45.602;11.904;2023-03-16T00:27:13;4.17;;;1.20;;
59571;SDS011;59406;45.602;11.904;2023-03-16T00:29:40;5.45;;;0.98;;
59571;SDS011;59406;45.602;11.904;2023-03-16T00:32:21;3.35;;;1.10;;
59571;SDS011;59406;45.602;11.904;2023-03-16T00:34:58;3.58;;;0.80;;
59571;SDS011;59406;45.602;11.904;2023-03-16T00:37:26;4.15;;;1.05;;
59571;SDS011;59406;45.602;11.904;2023-03-16T00:39:53;3.50;;;0.70;;
59571;SDS011;59406;45.602;11.904;2023-03-16T00:42:22;3.58;;;0.80;;
59571;SDS011;59406;45.602;11.904;2023-03-16T00:44:55;3.80;;;0.80;;
59571;SDS011;59406;45.602;11.904;2023-03-16T00:47:27;3.88;;;1.05;;
59571;SDS011;59406;45.602;11.904;2023-03-16T00:49:55;3.67;;;0.90;;
59571;SDS011;59406;45.602;11.904;2023-03-16T00:52:21;3.07;;;0.57;;
59571;SDS011;59406;45.602;11.904;2023-03-16T00:54:48;2.97;;;0.80;;
59571;SDS011;59406;45.602;11.904;2023-03-16T00:57:17;3.75;;;0.98;;
59571;SDS011;59406;45.602;11.904;2023-03-16T00:59:43;3.60;;;0.80;;
59571;SDS011;59406;45.602;11.904;2023-03-16T01:02:10;3.20;;;0.85;;
59571;SDS011;59406;45.602;11.904;2023-03-16T01:04:38;3.17;;;0.73;;
59571;SDS011;59406;45.602;11.904;2023-03-16T01:07:06;3.20;;;0.82;;
59571;SDS011;59406;45.602;11.904;2023-03-16T01:09:33;3.58;;;1.08;;
59571;SDS011;59406;45.602;11.904;2023-03-16T01:12:08;4.00;;;1.00;;
59571;SDS011;59406;45.602;11.904;2023-03-16T01:14:36;4.70;;;1.00;;
59571;SDS011;59406;45.602;11.904;2023-03-16T01:17:03;3.57;;;0.90;;
59571;SDS011;59406;45.602;11.904;2023-03-16T01:19:32;3.90;;;0.80;;
59571;SDS011;59406;45.602;11.904;2023-03-16T01:22:04;3.28;;;0.80;;
59571;SDS011;59406;45.602;11.904;2023-03-16T01:24:30;4.03;;;1.00;;
59571;SDS011;59406;45.602;11.904;2023-03-16T01:26:56;2.90;;;0.70;;
59571;SDS011;59406;45.602;11.904;2023-03-16T01:29:22;3.47;;;0.70;;
59571;SDS011;59406;45.602;11.904;2023-03-16T01:31:49;3.67;;;1.00;;
59571;SDS011;59406;45.602;11.904;2023-03-16T01:34:15;4.20;;;0.90;;
59571;SDS011;59406;45.602;11.904;2023-03-16T01:36:43;3.72;;;0.82;;
59571;SDS011;59406;45.602;11.904;2023-03-16T01:39:11;3.55;;;1.10;;
59571;SDS011;59406;45.602;11.904;2023-03-16T01:41:37;3.90;;;0.80;;
59571;SDS011;59406;45.602;11.904;2023-03-16T01:44:05;3.97;;;1.08;;
59571;SDS011;59406;45.602;11.904;2023-03-16T01:46:35;3.33;;;0.82;;
59571;SDS011;59406;45.602;11.904;2023-03-16T01:51:52;3.72;;;1.00;;
59571;SDS011;59406;45.602;11.904;2023-03-16T01:54:35;3.23;;;0.77;;
59571;SDS011;59406;45.602;11.904;2023-03-16T01:57:06;5.20;;;1.48;;
59571;SDS011;59406;45.602;11.904;2023-03-16T01:59:50;2.97;;;0.90;;
59571;SDS011;59406;45.602;11.904;2023-03-16T02:02:18;2.95;;;0.70;;
59571;SDS011;59406;45.602;11.904;2023-03-16T02:07:33;3.90;;;1.17;;
59571;SDS011;59406;45.602;11.904;2023-03-16T02:10:02;3.72;;;0.80;;
59571;SDS011;59406;45.602;11.904;2023-03-16T02:12:30;3.75;;;0.90;;
59571;SDS011;59406;45.602;11.904;2023-03-16T02:14:56;3.47;;;0.80;;
59571;SDS011;59406;45.602;11.904;2023-03-16T02:17:23;3.70;;;0.77;;
59571;SDS011;59406;45.602;11.904;2023-03-16T02:22:42;3.20;;;0.77;;
59571;SDS011;59406;45.602;11.904;2023-03-16T02:25:10;3.25;;;0.77;;
59571;SDS011;59406;45.602;11.904;2023-03-16T02:30:11;3.50;;;0.90;;
59571;SDS011;59406;45.602;11.904;2023-03-16T02:32:38;3.27;;;0.80;;
59571;SDS011;59406;45.602;11.904;2023-03-16T02:35:06;2.95;;;0.80;;
59571;SDS011;59406;45.602;11.904;2023-03-16T02:37:33;3.10;;;0.60;;
59571;SDS011;59406;45.602;11.904;2023-03-16T02:40:00;3.75;;;0.90;;
59571;SDS011;59406;45.602;11.904;2023-03-16T02:42:30;3.03;;;0.82;;
59571;SDS011;59406;45.602;11.904;2023-03-16T02:44:57;3.20;;;0.77;;
59571;SDS011;59406;45.602;11.904;2023-03-16T02:47:29;2.70;;;0.60;;
59571;SDS011;59406;45.602;11.904;2023-03-16T02:50:03;3.22;;;0.68;;
59571;SDS011;59406;45.602;11.904;2023-03-16T02:52:32;2.80;;;0.60;;
59571;SDS011;59406;45.602;11.904;2023-03-16T02:54:59;2.92;;;0.75;;
59571;SDS011;59406;45.602;11.904;2023-03-16T02:57:24;2.90;;;0.60;;
59571;SDS011;59406;45.602;11.904;2023-03-16T02:59:51;3.15;;;0.70;;
59571;SDS011;59406;45.602;11.904;2023-03-16T03:02:17;3.40;;;0.60;;
59571;SDS011;59406;45.602;11.904;2023-03-16T03:04:43;3.58;;;0.80;;
59571;SDS011;59406;45.602;11.904;2023-03-16T03:07:13;2.87;;;0.70;;
59571;SDS011;59406;45.602;11.904;2023-03-16T03:09:40;3.10;;;0.90;;
59571;SDS011;59406;45.602;11.904;2023-03-16T03:12:07;3.50;;;1.00;;
59571;SDS011;59406;45.602;11.904;2023-03-16T03:14:34;3.83;;;0.73;;
59571;SDS011;59406;45.602;11.904;2023-03-16T03:17:04;3.42;;;0.98;;
59571;SDS011;59406;45.602;11.904;2023-03-16T03:19:32;3.27;;;0.77;;
59571;SDS011;59406;45.602;11.904;2023-03-16T03:21:59;2.83;;;0.60;;
59571;SDS011;59406;45.602;11.904;2023-03-16T03:24:28;3.25;;;0.73;;
59571;SDS011;59406;45.602;11.904;2023-03-16T03:26:56;3.10;;;0.80;;
59571;SDS011;59406;45.602;11.904;2023-03-16T03:29:24;3.00;;;0.68;;
59571;SDS011;59406;45.602;11.904;2023-03-16T03:31:59;2.83;;;0.40;;
59571;SDS011;59406;45.602;11.904;2023-03-16T03:34:26;2.97;;;0.52;;
59571;SDS011;59406;45.602;11.904;2023-03-16T07:16:39;3.70;;;0.70;;
59571;SDS011;59406;45.602;11.904;2023-03-16T07:19:05;3.00;;;0.70;;
59571;SDS011;59406;45.602;11.904;2023-03-16T07:21:30;2.97;;;0.52;;
59571;SDS011;59406;45.602;11.904;2023-03-16T07:24:03;3.10;;;0.70;;
59571;SDS011;59406;45.602;11.904;2023-03-16T07:26:29;3.13;;;0.80;;
59571;SDS011;59406;45.602;11.904;2023-03-16T07:28:58;2.72;;;0.68;;
59571;SDS011;59406;45.602;11.904;2023-03-16T07:31:24;3.15;;;0.63;;
59571;SDS011;59406;45.602;11.904;2023-03-16T07:33:50;3.40;;;0.80;;
59571;SDS011;59406;45.602;11.904;2023-03-16T07:36:16;3.90;;;0.85;;
59571;SDS011;59406;45.602;11.904;2023-03-16T07:38:42;3.90;;;1.05;;
59571;SDS011;59406;45.602;11.904;2023-03-16T07:41:08;4.88;;;1.02;;
59571;SDS011;59406;45.602;11.904;2023-03-16T07:43:33;3.63;;;1.30;;
59571;SDS011;59406;45.602;11.904;2023-03-16T07:45:59;3.38;;;0.85;;
59571;SDS011;59406;45.602;11.904;2023-03-16T07:48:26;4.30;;;1.02;;
59571;SDS011;59406;45.602;11.904;2023-03-16T07:50:51;4.20;;;1.00;;
59571;SDS011;59406;45.602;11.904;2023-03-16T07:53:18;3.60;;;0.90;;
59571;SDS011;59406;45.602;11.904;2023-03-16T07:55:44;4.28;;;0.70;;
59571;SDS011;59406;45.602;11.904;2023-03-16T07:58:11;3.22;;;0.60;;
59571;SDS011;59406;45.602;11.904;2023-03-16T08:00:37;3.90;;;0.77;;
59571;SDS011;59406;45.602;11.904;2023-03-16T08:03:03;3.27;;;0.63;;
59571;SDS011;59406;45.602;11.904;2023-03-16T08:05:30;3.67;;;0.90;;
59571;SDS011;59406;45.602;11.904;2023-03-16T08:07:59;3.67;;;0.65;;
59571;SDS011;59406;45.602;11.904;2023-03-16T08:10:25;3.83;;;0.80;;
59571;SDS011;59406;45.602;11.904;2023-03-16T08:12:51;3.65;;;0.90;;
59571;SDS011;59406;45.602;11.904;2023-03-16T08:15:17;3.80;;;1.07;;
59571;SDS011;59406;45.602;11.904;2023-03-16T08:17:43;3.40;;;0.85;;
59571;SDS011;59406;45.602;11.904;2023-03-16T08:20:10;3.83;;;1.20;;
59571;SDS011;59406;45.602;11.904;2023-03-16T08:22:38;4.10;;;1.15;;
59571;SDS011;59406;45.602;11.904;2023-03-16T08:25:05;4.03;;;0.90;;
59571;SDS011;59406;45.602;11.904;2023-03-16T08:27:35;3.50;;;1.00;;
59571;SDS011;59406;45.602;11.904;2023-03-16T08:30:05;4.32;;;0.93;;
59571;SDS011;59406;45.602;11.904;2023-03-16T08:32:35;3.00;;;0.70;;
59571;SDS011;59406;45.602;11.904;2023-03-16T08:35:04;4.47;;;1.02;;
59571;SDS011;59406;45.602;11.904;2023-03-16T08:37:31;3.40;;;0.90;;
59571;SDS011;59406;45.602;11.904;2023-03-16T08:39:57;3.10;;;0.70;;
59571;SDS011;59406;45.602;11.904;2023-03-16T08:42:24;3.88;;;0.90;;
59571;SDS011;59406;45.602;11.904;2023-03-16T08:44:50;4.28;;;1.00;;
59571;SDS011;59406;45.602;11.904;2023-03-16T08:47:20;3.60;;;0.93;;
59571;SDS011;59406;45.602;11.904;2023-03-16T08:49:47;4.03;;;0.80;;
59571;SDS011;59406;45.602;11.904;2023-03-16T08:52:13;3.00;;;0.75;;
59571;SDS011;59406;45.602;11.904;2023-03-16T08:54:40;3.75;;;0.70;;
59571;SDS011;59406;45.602;11.904;2023-03-16T08:57:06;3.28;;;0.70;;
59571;SDS011;59406;45.602;11.904;2023-03-16T08:59:33;2.83;;;0.60;;
59571;SDS011;59406;45.602;11.904;2023-03-16T09:01:59;4.20;;;0.70;;
59571;SDS011;59406;45.602;11.904;2023-03-16T09:04:25;2.95;;;0.73;;
59571;SDS011;59406;45.602;11.904;2023-03-16T09:06:52;4.07;;;0.82;;
59571;SDS011;59406;45.602;11.904;2023-03-16T09:09:18;3.40;;;0.80;;
59571;SDS011;59406;45.602;11.904;2023-03-16T09:11:43;4.03;;;0.68;;
59571;SDS011;59406;45.602;11.904;2023-03-16T09:14:11;2.30;;;0.40;;
59571;SDS011;59406;45.602;11.904;2023-03-16T09:16:38;4.73;;;0.67;;
59571;SDS011;59406;45.602;11.904;2023-03-16T09:19:04;2.90;;;0.40;;
59571;SDS011;59406;45.602;11.904;2023-03-16T09:21:31;3.85;;;0.50;;
59571;SDS011;59406;45.602;11.904;2023-03-16T09:23:59;2.42;;;0.38;;
59571;SDS011;59406;45.602;11.904;2023-03-16T09:26:25;2.53;;;0.20;;
59571;SDS011;59406;45.602;11.904;2023-03-16T09:28:52;2.33;;;0.40;;
59571;SDS011;59406;45.602;11.904;2023-03-16T09:31:18;2.75;;;0.40;;
59571;SDS011;59406;45.602;11.904;2023-03-16T09:33:45;2.53;;;0.30;;
59571;SDS011;59406;45.602;11.904;2023-03-16T09:36:11;4.05;;;0.60;;
59571;SDS011;59406;45.602;11.904;2023-03-16T09:38:38;2.67;;;0.28;;
59571;SDS011;59406;45.602;11.904;2023-03-16T09:41:06;2.93;;;0.40;;
59571;SDS011;59406;45.602;11.904;2023-03-16T09:46:13;2.83;;;0.35;;
59571;SDS011;59406;45.602;11.904;2023-03-16T09:48:46;2.85;;;0.30;;
59571;SDS011;59406;45.602;11.904;2023-03-16T09:51:16;2.40;;;0.32;;
59571;SDS011;59406;45.602;11.904;2023-03-16T09:53:47;2.70;;;0.40;;
59571;SDS011;59406;45.602;11.904;2023-03-16T09:56:22;3.55;;;0.60;;
59571;SDS011;59406;45.602;11.904;2023-03-16T09:58:52;2.95;;;0.30;;
59571;SDS011;59406;45.602;11.904;2023-03-16T10:07:12;3.70;;;0.53;;
59571;SDS011;59406;45.602;11.904;2023-03-16T10:09:56;2.13;;;0.50;;
59571;SDS011;59406;45.602;11.904;2023-03-16T10:12:31;2.08;;;0.30;;
59571;SDS011;59406;45.602;11.904;2023-03-16T10:15:08;2.00;;;0.30;;
59571;SDS011;59406;45.602;11.904;2023-03-16T10:17:40;2.97;;;0.47;;
59571;SDS011;59406;45.602;11.904;2023-03-16T10:20:15;3.20;;;0.60;;
59571;SDS011;59406;45.602;11.904;2023-03-16T10:22:43;2.03;;;0.32;;
59571;SDS011;59406;45.602;11.904;2023-03-16T10:25:38;2.50;;;0.30;;
59571;SDS011;59406;45.602;11.904;2023-03-16T10:28:17;2.47;;;0.52;;
59571;SDS011;59406;45.602;11.904;2023-03-16T10:30:46;4.30;;;0.65;;
59571;SDS011;59406;45.602;11.904;2023-03-16T10:38:53;4.28;;;0.60;;
59571;SDS011;59406;45.602;11.904;2023-03-16T10:41:37;2.92;;;0.50;;
59571;SDS011;59406;45.602;11.904;2023-03-16T10:44:13;3.20;;;0.60;;
59571;SDS011;59406;45.602;11.904;2023-03-16T10:46:59;3.43;;;0.60;;
59571;SDS011;59406;45.602;11.904;2023-03-16T10:49:26;3.55;;;0.85;;
59571;SDS011;59406;45.602;11.904;2023-03-16T10:52:52;3.08;;;0.68;;
59571;SDS011;59406;45.602;11.904;2023-03-16T10:55:25;2.63;;;0.43;;
59571;SDS011;59406;45.602;11.904;2023-03-16T10:57:56;3.15;;;0.52;;
59571;SDS011;59406;45.602;11.904;2023-03-16T11:00:29;3.53;;;0.87;;
59571;SDS011;59406;45.602;11.904;2023-03-16T11:03:01;3.42;;;0.73;;
59571;SDS011;59406;45.602;11.904;2023-03-16T11:05:58;4.25;;;0.80;;
59571;SDS011;59406;45.602;11.904;2023-03-16T11:08:27;3.42;;;0.60;;
59571;SDS011;59406;45.602;11.904;2023-03-16T11:11:06;2.95;;;0.63;;
59571;SDS011;59406;45.602;11.904;2023-03-16T11:13:53;2.23;;;0.30;;
59571;SDS011;59406;45.602;11.904;2023-03-16T11:24:44;2.95;;;0.70;;
59571;SDS011;59406;45.602;11.904;2023-03-16T11:27:23;3.23;;;0.63;;
59571;SDS011;59406;45.602;11.904;2023-03-16T11:32:31;3.67;;;0.40;;
59571;SDS011;59406;45.602;11.904;2023-03-16T11:35:10;4.28;;;0.90;;
59571;SDS011;59406;45.602;11.904;2023-03-16T11:37:46;3.55;;;0.80;;
59571;SDS011;59406;45.602;11.904;2023-03-16T11:40:35;3.13;;;0.70;;
59571;SDS011;59406;45.602;11.904;2023-03-16T11:46:34;3.58;;;0.80;;
59571;SDS011;59406;45.602;11.904;2023-03-16T11:52:13;3.88;;;0.50;;
59571;SDS011;59406;45.602;11.904;2023-03-16T11:57:58;4.32;;;0.70;;
59571;SDS011;59406;45.602;11.904;2023-03-16T12:00:34;3.35;;;0.45;;
59571;SDS011;59406;45.602;11.904;2023-03-16T12:06:01;3.38;;;0.93;;
59571;SDS011;59406;45.602;11.904;2023-03-16T12:11:51;4.07;;;1.85;;
59571;SDS011;59406;45.602;11.904;2023-03-16T12:14:26;3.05;;;0.98;;
59571;SDS011;59406;45.602;11.904;2023-03-16T12:17:07;3.85;;;0.80;;
59571;SDS011;59406;45.602;11.904;2023-03-16T12:23:01;4.53;;;0.70;;
59571;SDS011;59406;45.602;11.904;2023-03-16T12:25:14;3.13;;;0.70;;
59571;SDS011;59406;45.602;11.904;2023-03-16T12:27:44;2.95;;;0.60;;
59571;SDS011;59406;45.602;11.904;2023-03-16T12:30:23;2.88;;;0.65;;
59571;SDS011;59406;45.602;11.904;2023-03-16T12:38:53;2.97;;;0.60;;
59571;SDS011;59406;45.602;11.904;2023-03-16T12:41:47;4.25;;;0.38;;
59571;SDS011;59406;45.602;11.904;2023-03-16T12:44:14;4.63;;;0.50;;
59571;SDS011;59406;45.602;11.904;2023-03-16T12:46:58;2.65;;;0.40;;
59571;SDS011;59406;45.602;11.904;2023-03-16T12:49:30;3.37;;;0.53;;
59571;SDS011;59406;45.602;11.904;2023-03-16T12:51:59;3.50;;;0.60;;
59571;SDS011;59406;45.602;11.904;2023-03-16T12:54:28;2.80;;;0.57;;
59571;SDS011;59406;45.602;11.904;2023-03-16T12:57:02;3.53;;;0.70;;
59571;SDS011;59406;45.602;11.904;2023-03-16T12:59:37;2.50;;;0.38;;
59571;SDS011;59406;45.602;11.904;2023-03-16T13:02:16;3.40;;;0.60;;
59571;SDS011;59406;45.602;11.904;2023-03-16T13:04:45;2.88;;;0.45;;
59571;SDS011;59406;45.602;11.904;2023-03-16T13:07:16;2.85;;;0.50;;
59571;SDS011;59406;45.602;11.904;2023-03-16T13:09:59;3.28;;;0.63;;
59571;SDS011;59406;45.602;11.904;2023-03-16T13:12:36;3.60;;;0.88;;
59571;SDS011;59406;45.602;11.904;2023-03-16T13:18:01;4.00;;;0.55;;
59571;SDS011;59406;45.602;11.904;2023-03-16T13:20:31;3.72;;;0.52;;
59571;SDS011;59406;45.602;11.904;2023-03-16T13:26:04;3.67;;;0.60;;
59571;SDS011;59406;45.602;11.904;2023-03-16T13:28:43;3.13;;;0.40;;
59571;SDS011;59406;45.602;11.904;2023-03-16T13:31:24;2.70;;;0.50;;
59571;SDS011;59406;45.602;11.904;2023-03-16T13:33:54;5.07;;;0.80;;
59571;SDS011;59406;45.602;11.904;2023-03-16T13:36:25;2.85;;;0.60;;
59571;SDS011;59406;45.602;11.904;2023-03-16T13:41:40;3.23;;;0.83;;
59571;SDS011;59406;45.602;11.904;2023-03-16T13:44:13;4.47;;;0.68;;
59571;SDS011;59406;45.602;11.904;2023-03-16T13:46:39;2.78;;;0.50;;
59571;SDS011;59406;45.602;11.904;2023-03-16T13:49:05;3.60;;;0.75;;
59571;SDS011;59406;45.602;11.904;2023-03-16T13:51:33;4.78;;;0.90;;
59571;SDS011;59406;45.602;11.904;2023-03-16T13:54:42;3.50;;;0.90;;
59571;SDS011;59406;45.602;11.904;2023-03-16T13:56:54;2.92;;;0.80;;
59571;SDS011;59406;45.602;11.904;2023-03-16T13:59:24;2.95;;;0.60;;
59571;SDS011;59406;45.602;11.904;2023-03-16T14:01:55;3.53;;;0.80;;
59571;SDS011;59406;45.602;11.904;2023-03-16T14:04:24;2.85;;;0.68;;
59571;SDS011;59406;45.602;11.904;2023-03-16T14:06:54;2.17;;;0.30;;
59571;SDS011;59406;45.602;11.904;2023-03-16T14:09:23;2.60;;;0.30;;
59571;SDS011;59406;45.602;11.904;2023-03-16T14:11:55;1.92;;;0.30;;
59571;SDS011;59406;45.602;11.904;2023-03-16T14:14:26;3.60;;;0.82;;
59571;SDS011;59406;45.602;11.904;2023-03-16T14:17:13;5.07;;;0.60;;
59571;SDS011;59406;45.602;11.904;2023-03-16T14:19:52;3.80;;;0.50;;
59571;SDS011;59406;45.602;11.904;2023-03-16T14:22:36;3.63;;;0.65;;
59571;SDS011;59406;45.602;11.904;2023-03-16T14:25:02;3.33;;;0.52;;
59571;SDS011;59406;45.602;11.904;2023-03-16T14:30:15;3.00;;;0.77;;
59571;SDS011;59406;45.602;11.904;2023-03-16T14:32:58;3.87;;;0.83;;
59571;SDS011;59406;45.602;11.904;2023-03-16T14:35:37;3.40;;;0.73;;
59571;SDS011;59406;45.602;11.904;2023-03-16T14:40:54;3.42;;;0.85;;
59571;SDS011;59406;45.602;11.904;2023-03-16T14:43:29;3.88;;;1.02;;
59571;SDS011;59406;45.602;11.904;2023-03-16T14:46:03;4.47;;;0.80;;
59571;SDS011;59406;45.602;11.904;2023-03-16T14:48:31;3.50;;;1.00;;
59571;SDS011;59406;45.602;11.904;2023-03-16T14:51:00;3.70;;;0.70;;
59571;SDS011;59406;45.602;11.904;2023-03-16T14:53:28;3.33;;;0.70;;
59571;SDS011;59406;45.602;11.904;2023-03-16T14:55:55;2.83;;;0.60;;
59571;SDS011;59406;45.602;11.904;2023-03-16T14:58:22;2.60;;;0.60;;
59571;SDS011;59406;45.602;11.904;2023-03-16T15:00:48;3.53;;;0.60;;
59571;SDS011;59406;45.602;11.904;2023-03-16T15:03:22;3.33;;;0.63;;
59571;SDS011;59406;45.602;11.904;2023-03-16T15:05:54;2.95;;;0.70;;
59571;SDS011;59406;45.602;11.904;2023-03-16T15:08:24;3.67;;;0.95;;
59571;SDS011;59406;45.602;11.904;2023-03-16T15:10:56;4.87;;;0.80;;
59571;SDS011;59406;45.602;11.904;2023-03-16T15:13:29;3.78;;;0.50;;
59571;SDS011;59406;45.602;11.904;2023-03-16T15:16:09;3.67;;;0.52;;
59571;SDS011;59406;45.602;11.904;2023-03-16T15:18:36;3.75;;;0.80;;
59571;SDS011;59406;45.602;11.904;2023-03-16T15:24:01;3.43;;;0.73;;
59571;SDS011;59406;45.602;11.904;2023-03-16T15:26:27;3.72;;;1.00;;
59571;SDS011;59406;45.602;11.904;2023-03-16T15:28:54;3.97;;;0.68;;
59571;SDS011;59406;45.602;11.904;2023-03-16T15:31:21;3.35;;;0.70;;
59571;SDS011;59406;45.602;11.904;2023-03-16T15:33:47;4.07;;;0.70;;
59571;SDS011;59406;45.602;11.904;2023-03-16T15:36:17;3.50;;;0.97;;
59571;SDS011;59406;45.602;11.904;2023-03-16T15:38:46;4.30;;;0.80;;
59571;SDS011;59406;45.602;11.904;2023-03-16T15:41:14;3.38;;;0.60;;
59571;SDS011;59406;45.602;11.904;2023-03-16T15:43:41;3.60;;;0.70;;
59571;SDS011;59406;45.602;11.904;2023-03-16T15:46:10;3.55;;;0.77;;
59571;SDS011;59406;45.602;11.904;2023-03-16T15:48:36;4.70;;;1.33;;
59571;SDS011;59406;45.602;11.904;2023-03-16T15:51:15;3.28;;;0.68;;
59571;SDS011;59406;45.602;11.904;2023-03-16T15:53:46;3.00;;;0.60;;
59571;SDS011;59406;45.602;11.904;2023-03-16T15:56:16;3.00;;;0.70;;
59571;SDS011;59406;45.602;11.904;2023-03-16T15:58:46;3.15;;;0.70;;
59571;SDS011;59406;45.602;11.904;2023-03-16T16:01:25;4.83;;;0.57;;
59571;SDS011;59406;45.602;11.904;2023-03-16T16:03:55;2.88;;;0.73;;
59571;SDS011;59406;45.602;11.904;2023-03-16T16:06:22;3.05;;;0.40;;
59571;SDS011;59406;45.602;11.904;2023-03-16T16:08:48;2.20;;;0.25;;
59571;SDS011;59406;45.602;11.904;2023-03-16T16:11:15;3.28;;;0.50;;
59571;SDS011;59406;45.602;11.904;2023-03-16T16:13:45;3.00;;;0.40;;
59571;SDS011;59406;45.602;11.904;2023-03-16T16:16:12;3.38;;;0.40;;
59571;SDS011;59406;45.602;11.904;2023-03-16T16:18:39;5.55;;;0.50;;
59571;SDS011;59406;45.602;11.904;2023-03-16T16:21:06;4.50;;;0.40;;
59571;SDS011;59406;45.602;11.904;2023-03-16T16:23:42;2.78;;;0.40;;
59571;SDS011;59406;45.602;11.904;2023-03-16T16:28:58;3.38;;;0.40;;
59571;SDS011;59406;45.602;11.904;2023-03-16T16:31:26;2.90;;;0.43;;
59571;SDS011;59406;45.602;11.904;2023-03-16T16:33:54;2.97;;;0.40;;
59571;SDS011;59406;45.602;11.904;2023-03-16T16:36:21;1.90;;;0.30;;
59571;SDS011;59406;45.602;11.904;2023-03-16T16:38:47;3.28;;;0.40;;
59571;SDS011;59406;45.602;11.904;2023-03-16T16:41:22;3.03;;;0.47;;
59571;SDS011;59406;45.602;11.904;2023-03-16T16:43:53;2.70;;;0.40;;
59571;SDS011;59406;45.602;11.904;2023-03-16T16:46:21;2.63;;;0.30;;
59571;SDS011;59406;45.602;11.904;2023-03-16T16:48:52;3.03;;;0.47;;
59571;SDS011;59406;45.602;11.904;2023-03-16T16:51:24;2.55;;;0.22;;
59571;SDS011;59406;45.602;11.904;2023-03-16T16:53:52;3.33;;;0.68;;
59571;SDS011;59406;45.602;11.904;2023-03-16T16:56:23;2.75;;;0.40;;
59571;SDS011;59406;45.602;11.904;2023-03-16T16:58:56;2.80;;;0.30;;
59571;SDS011;59406;45.602;11.904;2023-03-16T17:01:29;2.97;;;0.40;;
59571;SDS011;59406;45.602;11.904;2023-03-16T17:03:58;3.28;;;0.65;;
59571;SDS011;59406;45.602;11.904;2023-03-16T17:06:26;3.67;;;0.43;;
59571;SDS011;59406;45.602;11.904;2023-03-16T17:08:52;2.97;;;0.55;;
59571;SDS011;59406;45.602;11.904;2023-03-16T17:11:23;1.45;;;0.20;;
59571;SDS011;59406;45.602;11.904;2023-03-16T17:13:51;2.40;;;0.37;;
59571;SDS011;59406;45.602;11.904;2023-03-16T17:16:20;3.65;;;0.60;;
59571;SDS011;59406;45.602;11.904;2023-03-16T17:18:47;2.17;;;0.47;;
59571;SDS011;59406;45.602;11.904;2023-03-16T17:21:15;3.53;;;0.40;;
59571;SDS011;59406;45.602;11.904;2023-03-16T17:23:44;2.22;;;0.30;;
59571;SDS011;59406;45.602;11.904;2023-03-16T17:29:26;3.13;;;0.70;;
59571;SDS011;59406;45.602;11.904;2023-03-16T17:32:15;2.10;;;0.30;;
59571;SDS011;59406;45.602;11.904;2023-03-16T17:34:45;2.88;;;0.63;;
59571;SDS011;59406;45.602;11.904;2023-03-16T17:37:12;2.60;;;0.60;;
59571;SDS011;59406;45.602;11.904;2023-03-16T17:39:42;2.67;;;0.67;;
59571;SDS011;59406;45.602;11.904;2023-03-16T17:42:12;2.72;;;0.35;;
59571;SDS011;59406;45.602;11.904;2023-03-16T17:44:42;2.35;;;0.40;;
59571;SDS011;59406;45.602;11.904;2023-03-16T17:47:20;4.45;;;0.50;;
59571;SDS011;59406;45.602;11.904;2023-03-16T17:49:48;3.67;;;0.77;;
59571;SDS011;59406;45.602;11.904;2023-03-16T17:52:18;4.00;;;0.53;;
59571;SDS011;59406;45.602;11.904;2023-03-16T17:54:47;2.95;;;0.40;;
59571;SDS011;59406;45.602;11.904;2023-03-16T17:57:32;2.90;;;0.40;;
59571;SDS011;59406;45.602;11.904;2023-03-16T17:59:58;3.05;;;0.40;;
59571;SDS011;59406;45.602;11.904;2023-03-16T18:05:04;3.00;;;0.40;;
59571;SDS011;59406;45.602;11.904;2023-03-16T18:07:39;3.15;;;0.63;;
59571;SDS011;59406;45.602;11.904;2023-03-16T18:10:05;3.95;;;1.10;;
59571;SDS011;59406;45.602;11.904;2023-03-16T18:12:37;4.72;;;1.00;;
59571;SDS011;59406;45.602;11.904;2023-03-16T18:15:03;4.00;;;1.00;;
59571;SDS011;59406;45.602;11.904;2023-03-16T18:17:30;3.88;;;0.90;;
59571;SDS011;59406;45.602;11.904;2023-03-16T18:19:57;5.15;;;1.05;;
59571;SDS011;59406;45.602;11.904;2023-03-16T18:22:24;4.63;;;1.65;;
59571;SDS011;59406;45.602;11.904;2023-03-16T18:24:51;4.63;;;1.60;;
59571;SDS011;59406;45.602;11.904;2023-03-16T18:27:18;3.50;;;0.83;;
59571;SDS011;59406;45.602;11.904;2023-03-16T18:29:44;3.90;;;1.08;;
59571;SDS011;59406;45.602;11.904;2023-03-16T18:32:19;5.20;;;2.33;;
59571;SDS011;59406;45.602;11.904;2023-03-16T18:34:51;5.45;;;1.80;;
59571;SDS011;59406;45.602;11.904;2023-03-16T18:37:19;5.63;;;1.77;;
59571;SDS011;59406;45.602;11.904;2023-03-16T18:39:47;3.40;;;0.97;;
59571;SDS011;59406;45.602;11.904;2023-03-16T18:42:16;3.78;;;0.85;;
59571;SDS011;59406;45.602;11.904;2023-03-16T18:44:47;2.78;;;0.47;;
59571;SDS011;59406;45.602;11.904;2023-03-16T18:47:17;2.50;;;0.55;;
59571;SDS011;59406;45.602;11.904;2023-03-16T18:49:46;2.38;;;0.30;;
59571;SDS011;59406;45.602;11.904;2023-03-16T18:52:19;2.07;;;0.33;;
59571;SDS011;59406;45.602;11.904;2023-03-16T18:54:47;2.45;;;0.30;;
59571;SDS011;59406;45.602;11.904;2023-03-16T18:57:15;2.20;;;0.40;;
59571;SDS011;59406;45.602;11.904;2023-03-16T18:59:43;2.55;;;0.30;;
59571;SDS011;59406;45.602;11.904;2023-03-16T19:05:06;2.50;;;0.37;;
59571;SDS011;59406;45.602;11.904;2023-03-16T19:07:46;2.08;;;0.30;;
59571;SDS011;59406;45.602;11.904;2023-03-16T19:10:20;1.88;;;0.22;;
59571;SDS011;59406;45.602;11.904;2023-03-16T19:12:49;1.67;;;0.20;;
59571;SDS011;59406;45.602;11.904;2023-03-16T19:15:16;3.17;;;0.22;;
59571;SDS011;59406;45.602;11.904;2023-03-16T19:17:50;2.17;;;0.40;;
59571;SDS011;59406;45.602;11.904;2023-03-16T19:20:21;2.58;;;0.45;;
59571;SDS011;59406;45.602;11.904;2023-03-16T19:22:51;1.98;;;0.30;;
59571;SDS011;59406;45.602;11.904;2023-03-16T19:25:27;1.90;;;0.20;;
59571;SDS011;59406;45.602;11.904;2023-03-16T19:27:56;1.92;;;0.30;;
59571;SDS011;59406;45.602;11.904;2023-03-16T19:30:24;1.77;;;0.20;;
59571;SDS011;59406;45.602;11.904;2023-03-16T19:32:55;3.55;;;0.65;;
59571;SDS011;59406;45.602;11.904;2023-03-16T19:35:22;3.22;;;0.50;;
59571;SDS011;59406;45.602;11.904;2023-03-16T19:37:50;2.50;;;0.40;;
59571;SDS011;59406;45.602;11.904;2023-03-16T19:40:17;2.13;;;0.30;;
59571;SDS011;59406;45.602;11.904;2023-03-16T19:42:45;1.73;;;0.20;;
59571;SDS011;59406;45.602;11.904;2023-03-16T19:45:22;3.28;;;0.40;;
59571;SDS011;59406;45.602;11.904;2023-03-16T19:47:52;3.67;;;0.40;;
59571;SDS011;59406;45.602;11.904;2023-03-16T19:50:21;4.40;;;0.68;;
59571;SDS011;59406;45.602;11.904;2023-03-16T19:52:49;3.30;;;0.60;;
59571;SDS011;59406;45.602;11.904;2023-03-16T19:55:16;2.33;;;0.40;;
59571;SDS011;59406;45.602;11.904;2023-03-16T19:57:47;2.75;;;0.68;;
59571;SDS011;59406;45.602;11.904;2023-03-16T20:00:22;3.05;;;0.90;;
59571;SDS011;59406;45.602;11.904;2023-03-16T20:02:54;2.95;;;0.60;;